AirNav   Air Wisconsin Up To $57,000 Bonus
 
 1212 users online  

2II6 Baird-Wolford Airport
Tipton, Indiana, USA

GOING TO TIPTON?


FAA INFORMATION EFFECTIVE 25 MARCH 2021

Location

FAA Identifier: 2II6
Lat/Long: 40-15-53.1330N 086-06-09.9610W
40-15.885550N 086-06.166017W
40.2647592,-86.1027669
(estimated)
Elevation: 880 ft. / 268 m (estimated)
Variation: 02W (1985)
From city: 3 miles SW of TIPTON, IN
Time zone: UTC -4 (UTC -5 during Standard Time)
Zip code: 46072

Airport Operations

Airport use: Private use. Permission required prior to landing
Activation date: 08/1982
Control tower: no
ARTCC: CHICAGO CENTER
FSS: TERRE HAUTE FLIGHT SERVICE STATION
Attendance: 0800-DUSK
Wind indicator: yes
Segmented circle: no

Airport Communications

WX AWOS-3PT at TYQ (16 nm SW): 120.725 (317-769-3154)
WX AWOS-3PT at OKK (16 nm N): 113.5 (765-452-3014)
WX AWOS-3 at UMP (20 nm S): 119.375 (317-842-3911)

Nearby radio navigation aids

VOR radial/distance  VOR name  Freq  Var
OKKr192/15.9KOKOMO VORTAC113.5005W
GUSr176/22.9GRISSOM VORTAC108.4502W
MZZr238/23.7MARION VOR/DME108.6003W
VHPr023/29.6BRICKYARD VORTAC116.3001E
MIEr276/32.5MUNCIE VOR/DME114.4003W

 
NDB name  Hdg/Dist  Freq  Var  ID
METROPOLITAN356/19.833803WUMP ..- -- .--.

Airport Services

Runway Information

Runway E/W

Dimensions: 2085 x 75 ft. / 636 x 23 m
HAS A 170' STWY ON E END.
Surface: turf
RUNWAY E  RUNWAY W
Traffic pattern: leftleft
Obstructions: 25 ft. pline, 200 ft. from runway85 ft. pline, 2000 ft. from runway

Airport Ownership and Management from official FAA records

Ownership: Privately-owned
Owner: ANNA WOLFORD/ALLEN BAIRD
2761S-500W
TIPTON, IN 46072
Phone 765-675-7382
Manager: MIKE WOLFORD
2761S-500W
TIPTON, IN 46072-8996
Phone 765-675-8618

Airport Operational Statistics

Aircraft based on the field: 2
Single engine airplanes: 2
    

Additional Remarks

LIGHT BALLOON AND ULTRALIGHT ACTIVITY DURING MILD WX MONTHS.
FOR CD CTC CHICAGO ARTCC AT 630-906-8921.

Instrument Procedures

There are no published instrument procedures at 2II6.

Some nearby airports with instrument procedures:

5I4 - Sheridan Airport (7 nm SW)
KTYQ - IndianapolisExecutive Airport (16 nm SW)
KOKK - Kokomo Municipal Airport (16 nm N)
KUMP - Indianapolis Metro Airport (20 nm S)
KFKR - Frankfort Municipal Airport (21 nm W)
 
Loc | Ops | Rwys | IFR | FBO | Links
Com | Nav | Svcs | Stats | Notes
Area around 2II6 (Baird-Wolford Airport)
 
Road maps at: MapQuest Bing Google
 
Aerial photo
No photo
 
Sectional chart

 
Airport distance calculator
Flying to Baird-Wolford Airport? Find the distance to fly.

From to 2II6

Sunrise and sunset
Times for 12-Apr-2021
 Local
(UTC-4)
 Zulu
(UTC)
Morning civil twilight06:4410:44
Sunrise07:1211:12
Sunset20:1900:19
Evening civil twilight20:4700:47

Current date and time
Zulu (UTC)  12-Apr-2021 23:30:30
Local (UTC-4)  12-Apr-2021 19:30:30
 
METAR
KTYQ 
16nm SW 
122315Z AUTO 29009G14KT 10SM CLR 16/05 A2991 RMK AO2 T01580051
KOKK 
16nm N 
122256Z AUTO 28016KT 10SM CLR 16/05 A2988 RMK AO2 SLP120 T01610050
KFKR 
21nm W 
122315Z AUTO 27013KT 10SM CLR 16/06 A2990 RMK AO2
KGUS 
22nm N 
122256Z AUTO 28013KT 10SM CLR 17/06 A2986 RMK AO2 SLP114 T01650057
KMZZ 
24nm NE 
122315Z AUTO 28011KT 10SM CLR 15/07 A2989 RMK AO2 T01520068
KAID 
24nm E 
122315Z AUTO 29010G18KT 10SM SCT049 17/06 A2989 RMK AO2 T01660064
KMQJ 
27nm S 
122315Z AUTO 29012G16KT 10SM CLR 16/08 A2990 RMK AO1
KEYE 
27nm S 
122253Z AUTO 29013KT 10SM CLR 17/04 A2989 RMK AO2 SLP120 T01720039
KGGP 
29nm NW 
122315Z AUTO 28011G17KT 10SM CLR 15/05 A2989 RMK AO2
TAF
KGUS 
22nm N 
122100Z 1221/1403 29015G20KT 9999 SCT045 QNH2982INS TEMPO 1221/1224 29015G25KT BECMG 1223/1224 29009KT 9999 FEW090 QNH2988INS BECMG 1314/1315 25010G15KT 9999 SKC QNH3009INS BECMG 1318/1319 25020G25KT 9999 SKC QNH3006INS BECMG 1323/1324 25006KT 9999 FEW170 510033 QNH3008INS TX17/1222Z TN05/1311Z LAST NO AMDS AFT 1303 NEXT 1313
NOTAMs
Click for the latest NOTAMs
NOTAMs are issued by the DoD/FAA and will open in a separate window not controlled by AirNav.

 

 
 

Would you like to see your business listed on this page?

 If your business provides an interesting product or service to pilots, flight crews, aircraft, or users of the Baird-Wolford Airport, you should consider listing it here.  To start the listing process, click on the button below
 
Add a business
 

Other Pages about Baird-Wolford Airport

Update a link
 
Copyright © AirNav, LLC. All rights reserved. Privacy Policy  Contact